createdAt,value
2023-03-21T00:01:52.226Z,72.00
2023-03-21T00:04:19.632Z,71.60
2023-03-21T00:06:46.648Z,71.90
2023-03-21T00:09:13.524Z,71.90
2023-03-21T00:11:40.692Z,71.90
2023-03-21T00:14:08.850Z,71.80
2023-03-21T00:16:40.724Z,72.10
2023-03-21T00:27:43.043Z,69.90
2023-03-21T00:30:10.086Z,72.40
2023-03-21T00:32:45.860Z,72.50
2023-03-21T00:35:53.400Z,72.50
2023-03-21T00:38:03.563Z,72.60
2023-03-21T00:40:35.183Z,72.60
2023-03-21T00:43:07.167Z,72.70
2023-03-21T00:45:34.042Z,72.70
2023-03-21T00:48:01.203Z,72.80
2023-03-21T00:50:28.068Z,72.80
2023-03-21T00:52:55.004Z,73.40
2023-03-21T00:55:21.832Z,72.80
2023-03-21T00:57:56.120Z,72.70
2023-03-21T01:00:28.313Z,72.70
2023-03-21T01:03:08.505Z,72.70
2023-03-21T01:06:04.254Z,72.70
2023-03-21T01:08:51.102Z,72.70
2023-03-21T01:11:26.037Z,72.70
2023-03-21T01:13:59.743Z,72.70
2023-03-21T01:16:31.963Z,72.80
2023-03-21T01:18:59.633Z,72.90
2023-03-21T01:21:26.890Z,72.80
2023-03-21T01:23:53.858Z,72.90
2023-03-21T01:26:20.836Z,72.90
2023-03-21T01:28:47.769Z,72.90
2023-03-21T01:31:17.216Z,72.80
2023-03-21T01:33:45.024Z,72.80
2023-03-21T01:36:23.481Z,73.00
2023-03-21T01:38:52.936Z,71.80
2023-03-21T01:41:42.635Z,72.80
2023-03-21T01:44:17.915Z,71.50
2023-03-21T01:47:03.932Z,72.10
2023-03-21T01:49:46.284Z,72.90
2023-03-21T01:52:35.318Z,72.50
2023-03-21T01:55:11.704Z,72.70
2023-03-21T01:58:05.400Z,73.00
2023-03-21T02:00:34.295Z,71.80
2023-03-21T02:03:15.214Z,73.30
2023-03-21T02:06:15.342Z,73.10
2023-03-21T02:08:42.259Z,71.00
2023-03-21T02:11:10.403Z,73.40
2023-03-21T02:13:37.624Z,73.40
2023-03-21T02:16:43.034Z,73.50
2023-03-21T02:19:53.150Z,70.30
2023-03-21T02:23:08.328Z,70.70
2023-03-21T02:26:28.481Z,71.50
2023-03-21T02:29:24.247Z,70.70
2023-03-21T02:32:28.376Z,71.40
2023-03-21T02:35:47.111Z,70.50
2023-03-21T02:38:36.180Z,70.80
2023-03-21T02:41:19.580Z,72.40
2023-03-21T02:44:24.148Z,72.50
2023-03-21T02:47:06.437Z,73.80
2023-03-21T02:49:59.003Z,71.50
2023-03-21T02:52:39.449Z,73.10
2023-03-21T02:55:15.531Z,71.90
2023-03-21T02:57:47.023Z,70.60
2023-03-21T03:00:20.825Z,73.70
2023-03-21T03:02:54.672Z,73.20
2023-03-21T03:05:30.598Z,73.70
2023-03-21T03:08:45.084Z,73.40
2023-03-21T03:11:37.875Z,72.00
2023-03-21T03:15:00.247Z,70.30
2023-03-21T03:17:41.652Z,71.30
2023-03-21T03:20:46.538Z,72.90
2023-03-21T03:23:42.767Z,70.00
2023-03-21T03:26:16.935Z,71.90
2023-03-21T03:28:52.090Z,73.00
2023-03-21T03:31:31.914Z,73.00
2023-03-21T03:34:15.098Z,73.00
2023-03-21T03:36:51.572Z,73.30
2023-03-21T03:39:19.005Z,73.10
2023-03-21T03:42:12.507Z,73.70
2023-03-21T03:44:45.834Z,72.80
2023-03-21T03:47:36.314Z,73.80
2023-03-21T03:50:37.445Z,71.50
2023-03-21T03:53:25.524Z,70.90
2023-03-21T03:55:56.338Z,73.00
2023-03-21T03:58:36.187Z,73.10
2023-03-21T04:01:10.933Z,69.60
2023-03-21T04:03:48.856Z,73.50
2023-03-21T04:06:19.361Z,73.30
2023-03-21T04:08:46.316Z,74.00
2023-03-21T04:11:16.336Z,73.70
2023-03-21T04:13:43.210Z,73.70
2023-03-21T04:16:12.976Z,73.90
2023-03-21T04:18:40.894Z,73.70
2023-03-21T04:21:12.907Z,73.80
2023-03-21T04:23:41.463Z,72.90
2023-03-21T04:26:09.091Z,73.80
2023-03-21T04:28:37.022Z,73.80
2023-03-21T04:31:16.077Z,73.90
2023-03-21T04:33:50.061Z,73.60
2023-03-21T04:36:27.507Z,74.00
2023-03-21T04:38:57.136Z,74.00
2023-03-21T04:41:24.375Z,73.90
2023-03-21T04:43:52.616Z,74.00
2023-03-21T04:46:19.611Z,74.10
2023-03-21T04:48:47.195Z,73.90
2023-03-21T04:51:14.036Z,74.00
2023-03-21T04:53:44.652Z,74.00
2023-03-21T04:56:12.510Z,74.00
2023-03-21T04:58:40.612Z,74.10
2023-03-21T05:01:08.340Z,74.10
2023-03-21T05:03:40.040Z,74.10
2023-03-21T05:06:09.041Z,74.10
2023-03-21T05:08:36.848Z,74.00
2023-03-21T05:11:04.871Z,74.10
2023-03-21T05:13:31.793Z,74.10
2023-03-21T05:15:58.664Z,74.10
2023-03-21T05:18:26.139Z,74.10
2023-03-21T05:20:54.242Z,74.10
2023-03-21T05:23:22.833Z,74.00
2023-03-21T05:25:50.380Z,73.90
2023-03-21T05:28:20.406Z,74.00
2023-03-21T05:30:47.461Z,74.00
2023-03-21T05:33:16.822Z,74.20
2023-03-21T05:35:43.624Z,74.30
2023-03-21T05:38:10.444Z,74.30
2023-03-21T05:40:37.268Z,74.30
2023-03-21T05:43:04.209Z,74.10
2023-03-21T05:45:31.152Z,74.10
2023-03-21T05:47:58.057Z,74.20
2023-03-21T05:50:24.996Z,74.10
2023-03-21T05:52:51.852Z,73.90
2023-03-21T05:55:18.872Z,73.90
2023-03-21T05:57:45.755Z,73.90
2023-03-21T06:00:13.671Z,74.00
2023-03-21T06:02:40.713Z,73.90
2023-03-21T06:05:08.200Z,74.00
2023-03-21T06:07:37.014Z,74.00
2023-03-21T06:10:05.712Z,73.90
2023-03-21T06:12:32.980Z,73.90
2023-03-21T06:14:59.838Z,73.90
2023-03-21T06:17:26.680Z,74.00
2023-03-21T06:19:53.534Z,74.00
2023-03-21T06:22:20.351Z,74.00
2023-03-21T06:24:47.332Z,74.00
2023-03-21T06:27:14.415Z,74.10
2023-03-21T06:29:41.414Z,74.40
2023-03-21T06:32:08.214Z,74.70
2023-03-21T06:34:35.139Z,74.60
2023-03-21T06:37:02.047Z,74.40
2023-03-21T06:39:28.812Z,74.30
2023-03-21T06:41:55.662Z,74.40
2023-03-21T06:44:22.707Z,74.10
2023-03-21T06:46:49.789Z,74.20
2023-03-21T06:49:17.835Z,74.20
2023-03-21T06:51:44.795Z,74.20
2023-03-21T06:54:13.456Z,74.00
2023-03-21T06:56:41.293Z,74.00
2023-03-21T06:59:08.835Z,73.50
2023-03-21T07:01:36.860Z,73.50
2023-03-21T07:04:04.838Z,73.60
2023-03-21T07:06:32.073Z,73.80
2023-03-21T07:08:59.135Z,73.90
2023-03-21T07:11:26.358Z,73.70
2023-03-21T07:13:53.346Z,73.60
2023-03-21T07:16:21.767Z,74.10
2023-03-21T07:18:48.690Z,73.70
2023-03-21T07:21:15.625Z,73.80
2023-03-21T07:23:42.660Z,73.50
2023-03-21T07:26:09.567Z,73.30
2023-03-21T07:28:36.780Z,73.00
2023-03-21T07:31:08.388Z,72.80
2023-03-21T07:33:35.555Z,72.30
2023-03-21T07:36:02.760Z,72.70
2023-03-21T07:38:30.996Z,72.60
2023-03-21T07:41:00.750Z,72.40
2023-03-21T07:43:27.621Z,71.90
2023-03-21T07:45:59.653Z,72.40
2023-03-21T07:48:27.496Z,71.50
2023-03-21T07:50:54.301Z,72.40
2023-03-21T07:53:21.370Z,72.20
2023-03-21T07:55:58.403Z,71.80
2023-03-21T07:58:26.947Z,69.10
2023-03-21T08:00:54.105Z,71.90
2023-03-21T08:03:21.298Z,72.10
2023-03-21T08:05:48.298Z,72.20
2023-03-21T08:08:15.226Z,72.50
2023-03-21T08:10:45.629Z,72.00
2023-03-21T08:13:13.494Z,70.50
2023-03-21T08:15:42.249Z,71.90
2023-03-21T08:18:11.129Z,71.90
2023-03-21T08:20:38.669Z,71.90
2023-03-21T08:23:05.659Z,71.70
2023-03-21T08:25:33.312Z,71.40
2023-03-21T08:28:00.742Z,71.20
2023-03-21T08:30:29.341Z,71.10
2023-03-21T08:33:01.164Z,70.40
2023-03-21T08:35:30.237Z,70.30
2023-03-21T08:37:57.418Z,70.20
2023-03-21T08:40:24.375Z,69.90
2023-03-21T08:42:51.330Z,69.70
2023-03-21T08:45:18.693Z,69.90
2023-03-21T08:47:46.905Z,70.10
2023-03-21T08:50:19.837Z,70.30
2023-03-21T08:52:47.497Z,69.10
2023-03-21T08:55:17.009Z,70.00
2023-03-21T08:57:45.801Z,69.70
2023-03-21T09:00:17.240Z,69.50
2023-03-21T09:02:46.990Z,69.00
2023-03-21T09:05:16.666Z,69.10
2023-03-21T09:07:43.631Z,69.60
2023-03-21T09:10:20.555Z,69.70
2023-03-21T09:12:54.634Z,69.30
2023-03-21T09:15:25.000Z,67.60
2023-03-21T09:17:54.314Z,69.30
2023-03-21T09:20:26.309Z,69.20
2023-03-21T09:22:53.847Z,68.50
2023-03-21T09:25:21.439Z,68.50
2023-03-21T09:27:48.649Z,68.40
2023-03-21T09:30:19.387Z,68.20
2023-03-21T09:32:48.674Z,67.90
2023-03-21T09:35:19.654Z,67.50
2023-03-21T09:37:48.603Z,67.10
2023-03-21T09:40:27.382Z,68.70
2023-03-21T09:43:18.870Z,67.50
2023-03-21T09:46:16.247Z,63.30
2023-03-21T09:49:15.706Z,62.60
2023-03-21T09:51:52.737Z,66.70
2023-03-21T09:54:43.000Z,66.40
2023-03-21T09:57:38.141Z,61.90
2023-03-21T10:00:23.618Z,58.30
2023-03-21T10:02:57.276Z,66.00
2023-03-21T10:05:28.288Z,66.50
2023-03-21T10:08:17.564Z,66.80
2023-03-21T10:11:05.121Z,64.50
2023-03-21T10:13:43.991Z,66.10
2023-03-21T10:16:32.379Z,65.40
2023-03-21T10:19:12.377Z,65.50
2023-03-21T10:22:03.324Z,64.80
2023-03-21T10:24:34.234Z,66.20
2023-03-21T10:27:03.245Z,65.50
2023-03-21T10:29:43.317Z,66.30
2023-03-21T10:32:15.332Z,65.40
2023-03-21T10:34:58.785Z,66.30
2023-03-21T10:37:27.046Z,64.60
2023-03-21T10:39:55.848Z,66.00
2023-03-21T10:42:29.328Z,65.40
2023-03-21T10:44:57.775Z,64.60
2023-03-21T10:47:34.449Z,64.40
2023-03-21T10:50:08.236Z,60.90
2023-03-21T10:52:44.919Z,63.20
2023-03-21T10:55:22.602Z,62.80
2023-03-21T10:57:57.657Z,62.50
2023-03-21T11:00:33.866Z,61.20
2023-03-21T11:03:01.692Z,61.10
2023-03-21T11:05:41.824Z,63.10
2023-03-21T11:08:17.859Z,57.10
2023-03-21T11:11:06.698Z,58.40
2023-03-21T11:13:44.877Z,57.50
2023-03-21T11:16:27.488Z,57.90
2023-03-21T11:19:02.478Z,61.70
2023-03-21T11:21:37.735Z,61.30
2023-03-21T11:24:07.574Z,60.00
2023-03-21T11:26:37.845Z,63.90
2023-03-21T11:29:34.778Z,63.10
2023-03-21T11:32:10.506Z,58.10
2023-03-21T11:35:00.019Z,60.90
2023-03-21T11:37:53.227Z,56.40
2023-03-21T11:40:24.985Z,60.00
2023-03-21T11:42:59.982Z,56.60
2023-03-21T11:45:29.510Z,54.60
2023-03-21T11:48:00.296Z,57.70
2023-03-21T11:50:35.827Z,57.70
2023-03-21T11:53:21.560Z,55.20
2023-03-21T11:56:21.312Z,57.20
2023-03-21T11:59:32.002Z,46.10
2023-03-21T12:02:20.931Z,50.70
2023-03-21T12:05:03.611Z,55.40
2023-03-21T12:07:39.043Z,56.00
2023-03-21T12:10:31.940Z,55.00
2023-03-21T12:13:33.685Z,53.60
2023-03-21T12:16:33.593Z,54.10
2023-03-21T12:19:32.591Z,54.00
2023-03-21T12:22:20.523Z,55.80
2023-03-21T12:24:55.412Z,54.20
2023-03-21T12:28:07.854Z,57.70
2023-03-21T12:31:11.702Z,56.40
2023-03-21T12:33:41.420Z,55.40
2023-03-21T12:36:18.465Z,60.40
2023-03-21T12:39:16.573Z,56.90
2023-03-21T12:42:04.955Z,52.20
2023-03-21T12:44:51.923Z,54.90
2023-03-21T12:47:26.270Z,54.70
2023-03-21T12:50:29.374Z,58.30
2023-03-21T12:53:27.019Z,56.90
2023-03-21T12:56:01.430Z,57.50
2023-03-21T12:58:35.404Z,60.20
2023-03-21T13:01:06.691Z,61.40
2023-03-21T13:03:59.332Z,61.00
2023-03-21T13:06:28.264Z,59.00
2023-03-21T13:09:28.598Z,61.70
2023-03-21T13:12:28.496Z,55.10
2023-03-21T13:15:24.041Z,58.50
2023-03-21T13:18:01.572Z,56.30
2023-03-21T13:21:24.424Z,58.20
2023-03-21T13:24:20.145Z,49.00
2023-03-21T13:27:00.698Z,51.30
2023-03-21T13:29:32.178Z,58.10
2023-03-21T13:32:19.978Z,47.60
2023-03-21T13:34:59.255Z,53.20
2023-03-21T13:37:33.490Z,53.30
2023-03-21T13:40:10.859Z,54.50
2023-03-21T13:42:46.147Z,57.30
2023-03-21T13:45:44.832Z,52.10
2023-03-21T13:48:46.519Z,45.90
2023-03-21T13:51:43.196Z,49.20
2023-03-21T13:54:43.890Z,53.20
2023-03-21T13:57:22.940Z,47.30
2023-03-21T13:59:49.818Z,48.90
2023-03-21T14:02:34.457Z,55.60
2023-03-21T14:05:17.579Z,47.90
2023-03-21T14:07:52.678Z,47.90
2023-03-21T14:10:38.888Z,53.50
2023-03-21T14:13:09.924Z,55.10
2023-03-21T14:15:56.695Z,52.30
2023-03-21T14:18:52.403Z,49.90
2023-03-21T14:21:29.447Z,51.50
2023-03-21T14:23:59.415Z,50.50
2023-03-21T14:26:32.041Z,49.70
2023-03-21T14:29:01.867Z,49.50
2023-03-21T14:31:29.144Z,51.10
2023-03-21T14:33:59.759Z,50.40
2023-03-21T14:36:30.497Z,51.90
2023-03-21T14:39:21.288Z,55.60
2023-03-21T14:41:55.818Z,50.10
2023-03-21T14:44:53.485Z,56.50
2023-03-21T14:47:26.024Z,52.60
2023-03-21T14:49:53.754Z,56.90
2023-03-21T14:52:34.827Z,57.60
2023-03-21T14:55:13.762Z,51.00
2023-03-21T14:57:40.636Z,56.20
2023-03-21T15:00:22.949Z,55.80
2023-03-21T15:02:51.286Z,50.40
2023-03-21T15:05:31.868Z,50.00
2023-03-21T15:08:15.383Z,42.50
2023-03-21T15:11:06.370Z,47.90
2023-03-21T15:13:55.020Z,47.10
2023-03-21T15:16:23.061Z,45.40
2023-03-21T15:18:51.625Z,45.10
2023-03-21T15:21:30.833Z,45.70
2023-03-21T15:24:26.461Z,40.10
2023-03-21T15:27:02.324Z,40.30
2023-03-21T15:29:30.607Z,42.20
2023-03-21T15:31:57.866Z,45.60
2023-03-21T15:34:29.366Z,44.90
2023-03-21T15:37:05.179Z,43.30
2023-03-21T15:39:35.272Z,44.20
2023-03-21T15:42:06.101Z,46.00
2023-03-21T15:44:35.418Z,46.60
2023-03-21T15:47:02.513Z,46.50
2023-03-21T15:49:33.163Z,47.40
2023-03-21T15:52:15.746Z,46.20
2023-03-21T15:54:56.718Z,43.40
2023-03-21T15:57:32.879Z,45.90
2023-03-21T16:00:21.282Z,46.80
2023-03-21T16:02:55.080Z,46.50
2023-03-21T16:05:26.187Z,49.80
2023-03-21T16:07:53.209Z,49.90
2023-03-21T16:10:31.799Z,50.10
2023-03-21T16:12:58.891Z,45.80
2023-03-21T16:15:27.262Z,50.00
2023-03-21T16:17:58.572Z,49.40
2023-03-21T16:20:32.620Z,50.20
2023-03-21T16:22:59.873Z,50.40
2023-03-21T16:25:27.932Z,51.20
2023-03-21T16:27:54.819Z,51.50
2023-03-21T16:30:22.253Z,51.80
2023-03-21T16:32:50.495Z,51.60
2023-03-21T16:35:18.237Z,51.90
2023-03-21T16:37:48.062Z,51.50
2023-03-21T16:40:37.475Z,51.40
2023-03-21T16:43:04.895Z,47.10
2023-03-21T16:45:31.757Z,52.30
2023-03-21T16:48:00.321Z,52.40
2023-03-21T16:50:41.748Z,52.50
2023-03-21T16:53:09.560Z,51.60
2023-03-21T16:55:37.816Z,53.20
2023-03-21T16:58:06.262Z,53.60
2023-03-21T17:00:34.060Z,53.80
2023-03-21T17:03:08.743Z,54.20
2023-03-21T17:05:35.723Z,54.20
2023-03-21T17:08:04.191Z,54.80
2023-03-21T17:10:33.352Z,54.70
2023-03-21T17:13:00.470Z,54.50
2023-03-21T17:15:27.632Z,54.70
2023-03-21T17:17:55.645Z,54.90
2023-03-21T17:20:37.658Z,54.70
2023-03-21T17:23:04.959Z,52.50
2023-03-21T17:25:31.866Z,54.80
2023-03-21T17:27:58.772Z,54.90
2023-03-21T17:30:36.651Z,55.30
2023-03-21T17:33:04.294Z,52.70
2023-03-21T17:35:31.536Z,55.30
2023-03-21T17:37:58.766Z,55.20
2023-03-21T17:40:31.787Z,55.30
2023-03-21T17:43:01.268Z,54.90
2023-03-21T17:45:28.213Z,55.20
2023-03-21T17:47:55.410Z,55.40
2023-03-21T17:50:26.564Z,55.30
2023-03-21T17:52:56.415Z,54.90
2023-03-21T17:55:24.196Z,55.70
2023-03-21T17:57:51.150Z,55.80
2023-03-21T18:00:25.559Z,55.60
2023-03-21T18:02:53.357Z,53.60
2023-03-21T18:05:21.962Z,55.50
2023-03-21T18:08:10.708Z,55.50
2023-03-21T18:10:40.134Z,55.60
2023-03-21T18:13:07.232Z,56.00
2023-03-21T18:15:35.969Z,55.90
2023-03-21T18:18:05.140Z,56.00
2023-03-21T18:20:51.240Z,56.30
2023-03-21T18:23:19.317Z,56.40
2023-03-21T18:25:47.063Z,56.60
2023-03-21T18:28:17.647Z,56.80
2023-03-21T18:33:37.911Z,56.90
2023-03-21T18:36:07.765Z,57.00
2023-03-21T18:38:37.164Z,57.00
2023-03-21T18:41:07.674Z,57.30
2023-03-21T18:46:23.696Z,57.30
2023-03-21T18:48:51.939Z,57.60
2023-03-21T18:51:19.596Z,57.70
2023-03-21T18:53:46.588Z,57.70
2023-03-21T18:56:57.753Z,57.70
2023-03-21T18:59:01.953Z,57.80
2023-03-21T19:01:29.103Z,58.10
2023-03-21T19:04:20.128Z,58.00
2023-03-21T19:06:47.767Z,58.20
2023-03-21T19:09:15.195Z,55.60
2023-03-21T19:11:42.756Z,58.90
2023-03-21T19:14:11.662Z,58.30
2023-03-21T19:17:06.410Z,58.70
2023-03-21T19:19:27.506Z,58.70
2023-03-21T19:21:54.500Z,58.80
2023-03-21T19:24:27.601Z,58.80
2023-03-21T19:26:55.737Z,58.80
2023-03-21T19:29:22.562Z,58.80
2023-03-21T19:31:51.057Z,58.70
2023-03-21T19:34:18.700Z,58.80
2023-03-21T19:36:51.411Z,58.80
2023-03-21T19:39:22.426Z,58.70
2023-03-21T19:41:51.004Z,58.80
2023-03-21T19:44:19.553Z,58.90
2023-03-21T19:46:48.356Z,58.90
2023-03-21T19:49:20.148Z,59.10
2023-03-21T19:51:48.543Z,58.40
2023-03-21T19:54:17.398Z,59.10
2023-03-21T19:56:47.551Z,59.20
2023-03-21T19:59:15.438Z,59.30
2023-03-21T20:01:43.386Z,59.50
2023-03-21T20:04:10.945Z,59.60
2023-03-21T20:06:38.578Z,59.50
2023-03-21T20:09:50.041Z,59.60
2023-03-21T20:11:53.426Z,59.90
2023-03-21T20:14:21.195Z,59.50
2023-03-21T20:16:48.178Z,59.60
2023-03-21T20:19:16.172Z,59.70
2023-03-21T20:21:50.741Z,59.70
2023-03-21T20:24:21.904Z,59.80
2023-03-21T20:26:52.243Z,59.90
2023-03-21T20:30:07.191Z,59.80
2023-03-21T20:32:07.505Z,59.90
2023-03-21T20:34:36.823Z,60.00
2023-03-21T20:37:06.104Z,60.30
2023-03-21T20:39:33.389Z,60.30
2023-03-21T20:42:00.288Z,60.30
2023-03-21T20:44:51.840Z,60.50
2023-03-21T20:47:14.737Z,60.50
2023-03-21T20:49:41.693Z,60.60
2023-03-21T20:52:52.183Z,60.70
2023-03-21T20:54:59.673Z,60.60
2023-03-21T20:57:27.380Z,60.80
2023-03-21T20:59:55.125Z,60.90
2023-03-21T21:02:22.780Z,61.00
2023-03-21T21:05:17.614Z,61.10
2023-03-21T21:07:36.572Z,61.20
2023-03-21T21:10:03.643Z,61.40
2023-03-21T21:12:30.477Z,61.40
2023-03-21T21:14:57.291Z,61.60
2023-03-21T21:17:46.637Z,61.70
2023-03-21T21:20:16.954Z,61.70
2023-03-21T21:22:58.531Z,61.50
2023-03-21T21:25:27.192Z,61.60
2023-03-21T21:27:54.000Z,62.00
2023-03-21T21:30:21.183Z,62.00
2023-03-21T21:32:49.361Z,62.00
2023-03-21T21:35:17.872Z,61.90
2023-03-21T21:37:45.139Z,61.90
2023-03-21T21:40:15.161Z,61.90
2023-03-21T21:42:43.807Z,62.00
2023-03-21T21:45:13.515Z,61.50
2023-03-21T21:47:40.856Z,61.30
2023-03-21T21:50:08.986Z,61.30
2023-03-21T21:52:37.382Z,61.40
2023-03-21T21:55:06.419Z,61.70
2023-03-21T21:57:34.576Z,61.70
2023-03-21T22:00:06.288Z,62.20
2023-03-21T22:02:33.449Z,61.60
2023-03-21T22:05:00.656Z,61.70
2023-03-21T22:07:27.855Z,61.60
2023-03-21T22:09:54.859Z,61.60
2023-03-21T22:12:21.778Z,61.50
2023-03-21T22:14:48.772Z,61.40
2023-03-21T22:17:15.637Z,61.50
2023-03-21T22:19:44.699Z,61.60
2023-03-21T22:22:14.881Z,61.70
2023-03-21T22:24:42.013Z,61.70
2023-03-21T22:27:09.004Z,61.60
2023-03-21T22:29:35.880Z,61.70
2023-03-21T22:32:02.984Z,61.80
2023-03-21T22:34:29.910Z,61.90
2023-03-21T22:36:57.699Z,62.00
2023-03-21T22:39:26.343Z,62.10
2023-03-21T22:41:54.710Z,62.10
2023-03-21T22:44:21.611Z,62.10
2023-03-21T22:46:48.425Z,62.20
2023-03-21T22:49:15.616Z,62.30
2023-03-21T22:51:43.755Z,62.30
2023-03-21T22:54:11.021Z,62.30
2023-03-21T22:56:37.815Z,62.30
2023-03-21T22:59:04.739Z,62.30
2023-03-21T23:01:31.639Z,62.30
2023-03-21T23:03:58.620Z,62.30
2023-03-21T23:06:25.528Z,62.30
2023-03-21T23:08:52.573Z,62.40
2023-03-21T23:11:19.764Z,62.40
2023-03-21T23:13:53.623Z,62.40
2023-03-21T23:16:27.760Z,62.50
2023-03-21T23:18:55.605Z,62.60
2023-03-21T23:21:25.344Z,62.70
2023-03-21T23:23:52.943Z,62.70
2023-03-21T23:26:23.111Z,62.80
2023-03-21T23:28:50.476Z,62.70
2023-03-21T23:31:23.110Z,62.80
2023-03-21T23:33:51.205Z,62.30
2023-03-21T23:36:20.063Z,62.90
2023-03-21T23:38:47.407Z,63.00
2023-03-21T23:41:19.872Z,63.00
2023-03-21T23:43:47.808Z,62.90
2023-03-21T23:46:16.639Z,63.10
2023-03-21T23:48:45.022Z,63.10
2023-03-21T23:51:14.674Z,63.40
2023-03-21T23:53:41.751Z,63.30
2023-03-21T23:56:22.490Z,63.40
2023-03-21T23:58:50.106Z,62.50
